sensor_id;sensor_type;location;lat;lon;timestamp;pressure;altitude;pressure_sealevel;temperature;humidity
30516;BME280;17297;54.022;10.760;2022-08-19T00:00:26;101126.53;;;24.04;65.86
30516;BME280;17297;54.022;10.760;2022-08-19T00:02:53;101124.09;;;24.02;65.90
30516;BME280;17297;54.022;10.760;2022-08-19T00:05:19;101125.16;;;24.01;65.53
30516;BME280;17297;54.022;10.760;2022-08-19T00:07:45;101126.25;;;24.00;65.69
30516;BME280;17297;54.022;10.760;2022-08-19T00:10:13;101121.03;;;23.98;66.09
30516;BME280;17297;54.022;10.760;2022-08-19T00:12:39;101114.72;;;23.98;65.95
30516;BME280;17297;54.022;10.760;2022-08-19T00:15:08;101117.75;;;23.96;66.10
30516;BME280;17297;54.022;10.760;2022-08-19T00:17:37;101109.50;;;23.96;65.85
30516;BME280;17297;54.022;10.760;2022-08-19T00:20:03;101096.03;;;23.95;66.10
30516;BME280;17297;54.022;10.760;2022-08-19T00:22:29;101085.31;;;23.93;65.81
30516;BME280;17297;54.022;10.760;2022-08-19T00:24:54;101084.50;;;23.93;65.73
30516;BME280;17297;54.022;10.760;2022-08-19T00:27:20;101076.53;;;23.91;66.12
30516;BME280;17297;54.022;10.760;2022-08-19T00:29:45;101071.03;;;23.91;66.20
30516;BME280;17297;54.022;10.760;2022-08-19T00:32:11;101064.97;;;23.89;65.97
30516;BME280;17297;54.022;10.760;2022-08-19T00:34:37;101063.34;;;23.88;66.26
30516;BME280;17297;54.022;10.760;2022-08-19T00:37:03;101065.25;;;23.88;65.87
30516;BME280;17297;54.022;10.760;2022-08-19T00:39:28;101062.53;;;23.88;66.11
30516;BME280;17297;54.022;10.760;2022-08-19T00:41:54;101061.69;;;23.87;66.05
30516;BME280;17297;54.022;10.760;2022-08-19T00:44:23;101064.69;;;23.86;66.30
30516;BME280;17297;54.022;10.760;2022-08-19T00:46:50;101064.69;;;23.86;66.21
30516;BME280;17297;54.022;10.760;2022-08-19T00:51:48;101057.88;;;23.83;66.33
30516;BME280;17297;54.022;10.760;2022-08-19T00:54:16;101057.00;;;23.83;66.22
30516;BME280;17297;54.022;10.760;2022-08-19T00:56:42;101057.88;;;23.83;66.22
30516;BME280;17297;54.022;10.760;2022-08-19T00:59:09;101052.63;;;23.82;66.13
30516;BME280;17297;54.022;10.760;2022-08-19T01:01:39;101047.44;;;23.80;66.23
30516;BME280;17297;54.022;10.760;2022-08-19T01:04:06;101049.06;;;23.81;66.28
30516;BME280;17297;54.022;10.760;2022-08-19T01:06:33;101047.44;;;23.80;66.20
30516;BME280;17297;54.022;10.760;2022-08-19T01:09:01;101040.81;;;23.81;66.39
30516;BME280;17297;54.022;10.760;2022-08-19T01:11:27;101044.69;;;23.80;66.66
30516;BME280;17297;54.022;10.760;2022-08-19T01:13:55;101034.75;;;23.79;66.32
30516;BME280;17297;54.022;10.760;2022-08-19T01:16:22;101030.38;;;23.78;66.75
30516;BME280;17297;54.022;10.760;2022-08-19T01:18:50;101029.56;;;23.78;66.54
30516;BME280;17297;54.022;10.760;2022-08-19T01:21:23;101041.63;;;23.77;66.59
30516;BME280;17297;54.022;10.760;2022-08-19T01:23:51;101040.81;;;23.76;66.27
30516;BME280;17297;54.022;10.760;2022-08-19T01:26:20;101042.19;;;23.73;66.75
30516;BME280;17297;54.022;10.760;2022-08-19T01:28:48;101044.09;;;23.73;66.34
30516;BME280;17297;54.022;10.760;2022-08-19T01:31:18;101041.66;;;23.71;66.42
30516;BME280;17297;54.022;10.760;2022-08-19T01:33:44;101033.66;;;23.70;66.53
30516;BME280;17297;54.022;10.760;2022-08-19T01:36:23;101030.09;;;23.69;66.70
30516;BME280;17297;54.022;10.760;2022-08-19T01:38:50;101025.69;;;23.68;66.79
30516;BME280;17297;54.022;10.760;2022-08-19T01:41:17;101025.69;;;23.68;66.61
30516;BME280;17297;54.022;10.760;2022-08-19T01:43:43;101023.78;;;23.69;66.86
30516;BME280;17297;54.022;10.760;2022-08-19T01:46:09;101027.34;;;23.69;66.78
30516;BME280;17297;54.022;10.760;2022-08-19T01:48:39;101023.19;;;23.67;67.01
30516;BME280;17297;54.022;10.760;2022-08-19T01:51:05;101027.88;;;23.66;66.70
30516;BME280;17297;54.022;10.760;2022-08-19T01:53:32;101024.31;;;23.66;67.06
30516;BME280;17297;54.022;10.760;2022-08-19T01:55:58;101024.31;;;23.66;66.80
30516;BME280;17297;54.022;10.760;2022-08-19T01:58:28;101021.81;;;23.64;67.04
30516;BME280;17297;54.022;10.760;2022-08-19T02:00:56;101026.50;;;23.64;66.79
30516;BME280;17297;54.022;10.760;2022-08-19T02:03:22;101022.09;;;23.63;66.81
30516;BME280;17297;54.022;10.760;2022-08-19T02:05:53;101026.50;;;23.64;66.60
30516;BME280;17297;54.022;10.760;2022-08-19T02:08:18;101015.22;;;23.60;66.96
30516;BME280;17297;54.022;10.760;2022-08-19T02:10:44;101014.41;;;23.60;66.91
30516;BME280;17297;54.022;10.760;2022-08-19T02:13:11;101011.66;;;23.60;67.00
30516;BME280;17297;54.022;10.760;2022-08-19T02:15:38;101016.34;;;23.59;67.08
30516;BME280;17297;54.022;10.760;2022-08-19T02:18:04;101018.25;;;23.59;66.84
30516;BME280;17297;54.022;10.760;2022-08-19T02:20:30;101025.66;;;23.58;67.06
30516;BME280;17297;54.022;10.760;2022-08-19T02:22:56;101025.13;;;23.56;67.08
30516;BME280;17297;54.022;10.760;2022-08-19T02:25:21;101033.63;;;23.55;66.91
30516;BME280;17297;54.022;10.760;2022-08-19T02:27:47;101041.31;;;23.52;66.94
30516;BME280;17297;54.022;10.760;2022-08-19T02:30:15;101041.31;;;23.52;67.13
30516;BME280;17297;54.022;10.760;2022-08-19T02:32:41;101036.63;;;23.48;67.19
30516;BME280;17297;54.022;10.760;2022-08-19T02:35:07;101047.59;;;23.48;66.99
30516;BME280;17297;54.022;10.760;2022-08-19T02:37:33;101048.44;;;23.48;67.02
30516;BME280;17297;54.022;10.760;2022-08-19T02:40:18;101048.72;;;23.47;66.89
30516;BME280;17297;54.022;10.760;2022-08-19T02:42:44;101047.06;;;23.46;67.13
30516;BME280;17297;54.022;10.760;2022-08-19T02:45:14;101048.97;;;23.45;67.23
30516;BME280;17297;54.022;10.760;2022-08-19T02:47:39;101051.72;;;23.45;67.17
30516;BME280;17297;54.022;10.760;2022-08-19T02:50:06;101047.06;;;23.46;67.28
30516;BME280;17297;54.022;10.760;2022-08-19T02:52:33;101052.56;;;23.46;67.30
30516;BME280;17297;54.022;10.760;2022-08-19T02:54:58;101051.72;;;23.45;67.11
30516;BME280;17297;54.022;10.760;2022-08-19T02:57:25;101048.16;;;23.45;67.29
30516;BME280;17297;54.022;10.760;2022-08-19T02:59:51;101045.69;;;23.43;67.10
30516;BME280;17297;54.022;10.760;2022-08-19T03:02:16;101043.78;;;23.44;67.54
30516;BME280;17297;54.022;10.760;2022-08-19T03:04:42;101052.25;;;23.42;67.10
30516;BME280;17297;54.022;10.760;2022-08-19T03:07:08;101051.72;;;23.40;67.53
30516;BME280;17297;54.022;10.760;2022-08-19T03:09:36;101053.91;;;23.38;67.32
30516;BME280;17297;54.022;10.760;2022-08-19T03:12:03;101072.00;;;23.39;67.65
30516;BME280;17297;54.022;10.760;2022-08-19T03:14:31;101074.75;;;23.39;67.30
30516;BME280;17297;54.022;10.760;2022-08-19T03:16:57;101069.81;;;23.36;67.44
30516;BME280;17297;54.022;10.760;2022-08-19T03:19:23;101073.09;;;23.33;67.37
30516;BME280;17297;54.022;10.760;2022-08-19T03:21:49;101074.22;;;23.32;67.59
30516;BME280;17297;54.022;10.760;2022-08-19T03:24:16;101075.31;;;23.31;67.92
30516;BME280;17297;54.022;10.760;2022-08-19T03:26:46;101087.09;;;23.32;67.97
30516;BME280;17297;54.022;10.760;2022-08-19T03:29:12;101088.75;;;23.33;67.70
30516;BME280;17297;54.022;10.760;2022-08-19T03:31:40;101081.34;;;23.33;67.74
30516;BME280;17297;54.022;10.760;2022-08-19T03:34:06;101080.25;;;23.34;67.94
30516;BME280;17297;54.022;10.760;2022-08-19T03:36:32;101092.06;;;23.35;67.88
30516;BME280;17297;54.022;10.760;2022-08-19T03:39:00;101101.13;;;23.35;67.97
30516;BME280;17297;54.022;10.760;2022-08-19T03:41:36;101104.97;;;23.34;67.86
30516;BME280;17297;54.022;10.760;2022-08-19T03:44:02;101103.28;;;23.33;68.07
30516;BME280;17297;54.022;10.760;2022-08-19T03:46:31;101112.63;;;23.32;67.73
30516;BME280;17297;54.022;10.760;2022-08-19T03:48:59;101115.38;;;23.32;68.12
30516;BME280;17297;54.022;10.760;2022-08-19T03:51:28;101118.13;;;23.32;67.96
30516;BME280;17297;54.022;10.760;2022-08-19T03:53:58;101118.94;;;23.33;68.08
30516;BME280;17297;54.022;10.760;2022-08-19T03:56:24;101119.50;;;23.35;68.14
30516;BME280;17297;54.022;10.760;2022-08-19T03:58:57;101128.56;;;23.35;67.92
30516;BME280;17297;54.022;10.760;2022-08-19T04:01:25;101123.06;;;23.35;67.98
30516;BME280;17297;54.022;10.760;2022-08-19T04:03:55;101122.81;;;23.37;68.27
30516;BME280;17297;54.022;10.760;2022-08-19T04:06:28;101118.41;;;23.36;67.99
30516;BME280;17297;54.022;10.760;2022-08-19T04:08:56;101117.31;;;23.37;68.25
30516;BME280;17297;54.022;10.760;2022-08-19T04:11:28;101116.47;;;23.36;67.90
30516;BME280;17297;54.022;10.760;2022-08-19T04:13:55;101111.84;;;23.37;68.22
30516;BME280;17297;54.022;10.760;2022-08-19T04:16:23;101108.25;;;23.36;68.15
30516;BME280;17297;54.022;10.760;2022-08-19T04:18:48;101109.91;;;23.37;68.40
30516;BME280;17297;54.022;10.760;2022-08-19T04:21:20;101110.72;;;23.38;68.40
30516;BME280;17297;54.022;10.760;2022-08-19T04:23:47;101112.66;;;23.37;68.34
30516;BME280;17297;54.022;10.760;2022-08-19T04:26:18;101113.47;;;23.38;68.12
30516;BME280;17297;54.022;10.760;2022-08-19T04:28:45;101109.91;;;23.37;68.30
30516;BME280;17297;54.022;10.760;2022-08-19T04:31:26;101100.56;;;23.38;68.08
30516;BME280;17297;54.022;10.760;2022-08-19T04:33:53;101101.69;;;23.37;68.40
30516;BME280;17297;54.022;10.760;2022-08-19T04:36:22;101098.94;;;23.37;68.31
30516;BME280;17297;54.022;10.760;2022-08-19T04:38:49;101109.91;;;23.37;68.46
30516;BME280;17297;54.022;10.760;2022-08-19T04:41:17;101123.63;;;23.37;68.09
30516;BME280;17297;54.022;10.760;2022-08-19T04:44:02;101121.97;;;23.36;68.18
30516;BME280;17297;54.022;10.760;2022-08-19T04:46:27;101123.06;;;23.35;68.26
30516;BME280;17297;54.022;10.760;2022-08-19T04:48:57;101115.94;;;23.34;68.21
30516;BME280;17297;54.022;10.760;2022-08-19T04:51:25;101116.75;;;23.35;68.25
30516;BME280;17297;54.022;10.760;2022-08-19T04:53:51;101117.31;;;23.32;68.39
30516;BME280;17297;54.022;10.760;2022-08-19T04:56:18;101118.13;;;23.32;68.51
30516;BME280;17297;54.022;10.760;2022-08-19T04:58:46;101122.78;;;23.32;68.16
30516;BME280;17297;54.022;10.760;2022-08-19T05:01:14;101118.94;;;23.33;68.44
30516;BME280;17297;54.022;10.760;2022-08-19T05:03:39;101127.16;;;23.33;68.22
30516;BME280;17297;54.022;10.760;2022-08-19T05:06:11;101116.19;;;23.33;68.54
30516;BME280;17297;54.022;10.760;2022-08-19T05:08:39;101120.88;;;23.32;68.61
30516;BME280;17297;54.022;10.760;2022-08-19T05:11:11;101114.28;;;23.33;68.61
30516;BME280;17297;54.022;10.760;2022-08-19T05:13:37;101119.75;;;23.33;68.33
30516;BME280;17297;54.022;10.760;2022-08-19T05:16:04;101123.34;;;23.34;68.48
30516;BME280;17297;54.022;10.760;2022-08-19T05:18:29;101124.19;;;23.34;68.50
30516;BME280;17297;54.022;10.760;2022-08-19T05:21:16;101123.34;;;23.34;68.60
30516;BME280;17297;54.022;10.760;2022-08-19T05:24:00;101127.16;;;23.33;68.32
30516;BME280;17297;54.022;10.760;2022-08-19T05:26:27;101128.28;;;23.32;68.72
30516;BME280;17297;54.022;10.760;2022-08-19T05:28:53;101139.50;;;23.30;68.37
30516;BME280;17297;54.022;10.760;2022-08-19T05:31:19;101134.03;;;23.30;68.37
30516;BME280;17297;54.022;10.760;2022-08-19T05:33:45;101137.88;;;23.29;68.64
30516;BME280;17297;54.022;10.760;2022-08-19T05:36:11;101146.09;;;23.29;68.46
30516;BME280;17297;54.022;10.760;2022-08-19T05:38:37;101145.28;;;23.28;68.67
30516;BME280;17297;54.022;10.760;2022-08-19T05:41:09;101136.22;;;23.28;68.80
30516;BME280;17297;54.022;10.760;2022-08-19T05:43:35;101143.63;;;23.27;68.77
30516;BME280;17297;54.022;10.760;2022-08-19T05:46:03;101142.78;;;23.27;68.56
30516;BME280;17297;54.022;10.760;2022-08-19T05:48:33;101135.66;;;23.26;69.02
30516;BME280;17297;54.022;10.760;2022-08-19T05:51:04;101140.31;;;23.25;68.91
30516;BME280;17297;54.022;10.760;2022-08-19T05:53:32;101137.59;;;23.25;68.87
30516;BME280;17297;54.022;10.760;2022-08-19T05:56:05;101135.94;;;23.24;68.70
30516;BME280;17297;54.022;10.760;2022-08-19T05:58:32;101137.84;;;23.24;68.81
30516;BME280;17297;54.022;10.760;2022-08-19T06:00:59;101136.19;;;23.23;69.09
30516;BME280;17297;54.022;10.760;2022-08-19T06:03:30;101126.03;;;23.23;68.73
30516;BME280;17297;54.022;10.760;2022-08-19T06:05:57;101127.16;;;23.22;69.18
30516;BME280;17297;54.022;10.760;2022-08-19T06:08:24;101122.75;;;23.21;68.80
30516;BME280;17297;54.022;10.760;2022-08-19T06:10:49;101139.22;;;23.21;69.07
30516;BME280;17297;54.022;10.760;2022-08-19T06:13:15;101130.16;;;23.21;68.89
30516;BME280;17297;54.022;10.760;2022-08-19T06:15:40;101123.59;;;23.22;69.14
30516;BME280;17297;54.022;10.760;2022-08-19T06:18:09;101137.31;;;23.22;69.07
30516;BME280;17297;54.022;10.760;2022-08-19T06:20:34;101132.06;;;23.20;69.36
30516;BME280;17297;54.022;10.760;2022-08-19T06:23:00;101129.31;;;23.20;69.37
30516;BME280;17297;54.022;10.760;2022-08-19T06:25:26;101129.31;;;23.20;69.29
30516;BME280;17297;54.022;10.760;2022-08-19T06:27:51;101124.69;;;23.21;69.41
30516;BME280;17297;54.022;10.760;2022-08-19T06:30:16;101121.94;;;23.21;69.15
30516;BME280;17297;54.022;10.760;2022-08-19T06:32:42;101129.06;;;23.22;69.48
30516;BME280;17297;54.022;10.760;2022-08-19T06:35:08;101123.59;;;23.22;69.46
30516;BME280;17297;54.022;10.760;2022-08-19T06:37:33;101128.25;;;23.21;69.25
30516;BME280;17297;54.022;10.760;2022-08-19T06:39:59;101124.41;;;23.22;69.33
30516;BME280;17297;54.022;10.760;2022-08-19T06:42:24;101124.41;;;23.22;69.59
30516;BME280;17297;54.022;10.760;2022-08-19T06:44:53;101129.88;;;23.22;69.35
30516;BME280;17297;54.022;10.760;2022-08-19T06:47:21;101126.31;;;23.22;69.79
30516;BME280;17297;54.022;10.760;2022-08-19T06:49:46;101125.22;;;23.23;69.47
30516;BME280;17297;54.022;10.760;2022-08-19T06:52:12;101120.56;;;23.23;69.50
30516;BME280;17297;54.022;10.760;2022-08-19T06:54:39;101124.41;;;23.22;69.70
30516;BME280;17297;54.022;10.760;2022-08-19T06:57:05;101119.72;;;23.23;69.68
30516;BME280;17297;54.022;10.760;2022-08-19T06:59:32;101119.47;;;23.24;69.83
30516;BME280;17297;54.022;10.760;2022-08-19T07:02:03;101120.28;;;23.25;69.80
30516;BME280;17297;54.022;10.760;2022-08-19T07:04:31;101120.28;;;23.25;69.60
30516;BME280;17297;54.022;10.760;2022-08-19T07:09:25;101137.31;;;23.27;69.84
30516;BME280;17297;54.022;10.760;2022-08-19T07:11:53;101139.78;;;23.28;69.95
30516;BME280;17297;54.022;10.760;2022-08-19T07:14:21;101141.72;;;23.28;69.89
30516;BME280;17297;54.022;10.760;2022-08-19T07:16:49;101135.13;;;23.29;69.66
30516;BME280;17297;54.022;10.760;2022-08-19T07:19:17;101136.75;;;23.30;69.80
30516;BME280;17297;54.022;10.760;2022-08-19T07:21:42;101135.69;;;23.31;69.91
30516;BME280;17297;54.022;10.760;2022-08-19T07:24:08;101142.56;;;23.34;69.71
30516;BME280;17297;54.022;10.760;2022-08-19T07:26:39;101149.69;;;23.35;69.78
30516;BME280;17297;54.022;10.760;2022-08-19T07:29:05;101147.78;;;23.35;69.90
30516;BME280;17297;54.022;10.760;2022-08-19T07:31:31;101141.19;;;23.36;69.92
30516;BME280;17297;54.022;10.760;2022-08-19T07:34:03;101145.59;;;23.37;70.10
30516;BME280;17297;54.022;10.760;2022-08-19T07:36:32;101135.16;;;23.39;70.16
30516;BME280;17297;54.022;10.760;2022-08-19T07:39:00;101139.81;;;23.39;69.82
30516;BME280;17297;54.022;10.760;2022-08-19T07:41:30;101145.31;;;23.39;70.00
30516;BME280;17297;54.022;10.760;2022-08-19T07:43:57;101151.63;;;23.39;69.78
30516;BME280;17297;54.022;10.760;2022-08-19T07:46:23;101155.22;;;23.40;69.87
30516;BME280;17297;54.022;10.760;2022-08-19T07:48:50;101154.13;;;23.41;69.83
30516;BME280;17297;54.022;10.760;2022-08-19T07:51:19;101158.78;;;23.40;70.20
30516;BME280;17297;54.022;10.760;2022-08-19T07:53:46;101166.75;;;23.42;70.05
30516;BME280;17297;54.022;10.760;2022-08-19T07:56:12;101163.16;;;23.41;70.12
30516;BME280;17297;54.022;10.760;2022-08-19T07:58:40;101165.09;;;23.41;70.14
30516;BME280;17297;54.022;10.760;2022-08-19T08:01:07;101168.66;;;23.41;70.03
30516;BME280;17297;54.022;10.760;2022-08-19T08:03:36;101158.50;;;23.42;70.09
30516;BME280;17297;54.022;10.760;2022-08-19T08:06:21;101166.75;;;23.42;70.36
30516;BME280;17297;54.022;10.760;2022-08-19T08:09:06;101171.16;;;23.43;70.41
30516;BME280;17297;54.022;10.760;2022-08-19T08:14:26;101165.66;;;23.43;70.37
30516;BME280;17297;54.022;10.760;2022-08-19T08:16:53;101161.00;;;23.43;70.36
30516;BME280;17297;54.022;10.760;2022-08-19T08:19:21;101170.88;;;23.44;70.14
30516;BME280;17297;54.022;10.760;2022-08-19T08:21:48;101170.88;;;23.44;70.12
30516;BME280;17297;54.022;10.760;2022-08-19T08:24:14;101175.00;;;23.47;70.52
30516;BME280;17297;54.022;10.760;2022-08-19T08:26:40;101175.00;;;23.47;70.60
30516;BME280;17297;54.022;10.760;2022-08-19T08:29:06;101172.81;;;23.49;70.25
30516;BME280;17297;54.022;10.760;2022-08-19T08:31:34;101180.78;;;23.50;70.72
30516;BME280;17297;54.022;10.760;2022-08-19T08:33:59;101176.94;;;23.51;70.64
30516;BME280;17297;54.022;10.760;2022-08-19T08:36:25;101177.50;;;23.54;70.37
30516;BME280;17297;54.022;10.760;2022-08-19T08:38:51;101189.28;;;23.54;70.83
30516;BME280;17297;54.022;10.760;2022-08-19T08:41:34;101176.38;;;23.55;70.69
30516;BME280;17297;54.022;10.760;2022-08-19T08:44:02;101188.22;;;23.55;70.90
30516;BME280;17297;54.022;10.760;2022-08-19T08:46:41;101186.28;;;23.56;70.94
30516;BME280;17297;54.022;10.760;2022-08-19T08:52:04;101193.16;;;23.58;70.79
30516;BME280;17297;54.022;10.760;2022-08-19T08:54:38;101194.25;;;23.57;70.95
30516;BME280;17297;54.022;10.760;2022-08-19T08:57:11;101187.41;;;23.60;70.94
30516;BME280;17297;54.022;10.760;2022-08-19T08:59:40;101193.72;;;23.60;70.69
30516;BME280;17297;54.022;10.760;2022-08-19T09:02:07;101204.44;;;23.62;70.91
30516;BME280;17297;54.022;10.760;2022-08-19T09:04:35;101205.25;;;23.62;70.81
30516;BME280;17297;54.022;10.760;2022-08-19T09:09:36;101199.47;;;23.64;71.17
30516;BME280;17297;54.022;10.760;2022-08-19T09:14:52;101188.25;;;23.65;70.85
30516;BME280;17297;54.022;10.760;2022-08-19T09:17:29;101190.72;;;23.67;71.26
30516;BME280;17297;54.022;10.760;2022-08-19T09:20:18;101191.53;;;23.67;71.14
30516;BME280;17297;54.022;10.760;2022-08-19T09:22:44;101185.81;;;23.69;70.85
30516;BME280;17297;54.022;10.760;2022-08-19T09:25:14;101194.88;;;23.69;71.19
30516;BME280;17297;54.022;10.760;2022-08-19T09:27:41;101191.88;;;23.71;71.30
30516;BME280;17297;54.022;10.760;2022-08-19T09:30:08;101196.25;;;23.72;71.29
30516;BME280;17297;54.022;10.760;2022-08-19T09:32:34;101202.31;;;23.74;71.46
30516;BME280;17297;54.022;10.760;2022-08-19T09:34:59;101196.81;;;23.74;71.46
30516;BME280;17297;54.022;10.760;2022-08-19T09:37:25;101195.72;;;23.75;71.62
30516;BME280;17297;54.022;10.760;2022-08-19T09:39:54;101200.09;;;23.76;71.60
30516;BME280;17297;54.022;10.760;2022-08-19T09:42:19;101200.09;;;23.76;71.53
30516;BME280;17297;54.022;10.760;2022-08-19T09:44:45;101195.44;;;23.77;71.36
30516;BME280;17297;54.022;10.760;2022-08-19T09:47:13;101200.69;;;23.78;71.64
30516;BME280;17297;54.022;10.760;2022-08-19T09:49:40;101205.34;;;23.78;71.60
30516;BME280;17297;54.022;10.760;2022-08-19T09:52:08;101198.75;;;23.79;71.75
30516;BME280;17297;54.022;10.760;2022-08-19T09:54:34;101200.69;;;23.78;71.99
30516;BME280;17297;54.022;10.760;2022-08-19T09:57:00;101203.13;;;23.80;71.88
30516;BME280;17297;54.022;10.760;2022-08-19T09:59:25;101200.38;;;23.80;71.85
30516;BME280;17297;54.022;10.760;2022-08-19T10:01:51;101193.00;;;23.80;71.82
30516;BME280;17297;54.022;10.760;2022-08-19T10:04:17;101192.72;;;23.82;72.12
30516;BME280;17297;54.022;10.760;2022-08-19T10:06:42;101188.03;;;23.82;72.11
30516;BME280;17297;54.022;10.760;2022-08-19T10:09:09;101190.78;;;23.82;72.03
30516;BME280;17297;54.022;10.760;2022-08-19T10:11:38;101197.09;;;23.83;71.99
30516;BME280;17297;54.022;10.760;2022-08-19T10:14:05;101202.06;;;23.86;72.34
30516;BME280;17297;54.022;10.760;2022-08-19T10:16:35;101196.56;;;23.86;72.16
30516;BME280;17297;54.022;10.760;2022-08-19T10:19:01;101192.75;;;23.87;72.46
30516;BME280;17297;54.022;10.760;2022-08-19T10:21:32;101191.63;;;23.88;72.18
30516;BME280;17297;54.022;10.760;2022-08-19T10:24:04;101200.44;;;23.90;72.30
30516;BME280;17297;54.022;10.760;2022-08-19T10:26:35;101199.34;;;23.91;72.34
30516;BME280;17297;54.022;10.760;2022-08-19T10:29:03;101205.38;;;23.93;72.57
30516;BME280;17297;54.022;10.760;2022-08-19T10:31:32;101202.09;;;23.96;72.64
30516;BME280;17297;54.022;10.760;2022-08-19T10:33:58;101199.63;;;24.00;72.45
30516;BME280;17297;54.022;10.760;2022-08-19T10:36:31;101194.66;;;24.02;72.70
30516;BME280;17297;54.022;10.760;2022-08-19T10:38:58;101192.22;;;24.05;72.74
30516;BME280;17297;54.022;10.760;2022-08-19T10:41:26;101201.81;;;24.08;72.96
30516;BME280;17297;54.022;10.760;2022-08-19T10:43:54;101194.97;;;24.10;72.89
30516;BME280;17297;54.022;10.760;2022-08-19T10:46:22;101197.44;;;24.12;72.82
30516;BME280;17297;54.022;10.760;2022-08-19T10:48:49;101194.16;;;24.15;72.68
30516;BME280;17297;54.022;10.760;2022-08-19T10:51:15;101202.13;;;24.16;72.86
30516;BME280;17297;54.022;10.760;2022-08-19T10:54:00;101201.03;;;24.17;72.82
30516;BME280;17297;54.022;10.760;2022-08-19T10:56:27;101199.13;;;24.18;72.86
30516;BME280;17297;54.022;10.760;2022-08-19T10:59:12;101200.75;;;24.19;73.23
30516;BME280;17297;54.022;10.760;2022-08-19T11:01:40;101195.00;;;24.20;72.90
30516;BME280;17297;54.022;10.760;2022-08-19T11:04:06;101193.06;;;24.21;73.23
30516;BME280;17297;54.022;10.760;2022-08-19T11:06:35;101198.28;;;24.23;72.77
30516;BME280;17297;54.022;10.760;2022-08-19T11:09:02;101192.53;;;24.24;72.82
30516;BME280;17297;54.022;10.760;2022-08-19T11:11:28;101192.53;;;24.24;73.25
30516;BME280;17297;54.022;10.760;2022-08-19T11:13:54;101197.16;;;24.24;73.18
30516;BME280;17297;54.022;10.760;2022-08-19T11:16:21;101189.78;;;24.24;72.95
30516;BME280;17297;54.022;10.760;2022-08-19T11:18:50;101190.03;;;24.23;73.25
30516;BME280;17297;54.022;10.760;2022-08-19T11:21:19;101186.47;;;24.22;73.04
30516;BME280;17297;54.022;10.760;2022-08-19T11:23:47;101201.31;;;24.21;73.03
30516;BME280;17297;54.022;10.760;2022-08-19T11:26:14;101192.25;;;24.20;72.73
30516;BME280;17297;54.022;10.760;2022-08-19T11:28:41;101196.06;;;24.19;72.90
30516;BME280;17297;54.022;10.760;2022-08-19T11:31:11;101198.28;;;24.17;73.13
30516;BME280;17297;54.022;10.760;2022-08-19T11:33:37;101201.84;;;24.18;72.89
30516;BME280;17297;54.022;10.760;2022-08-19T11:36:03;101197.44;;;24.17;73.13
30516;BME280;17297;54.022;10.760;2022-08-19T11:38:28;101201.31;;;24.16;73.25
30516;BME280;17297;54.022;10.760;2022-08-19T11:40:59;101201.59;;;24.14;73.16
30516;BME280;17297;54.022;10.760;2022-08-19T11:43:26;101198.28;;;24.12;73.09
30516;BME280;17297;54.022;10.760;2022-08-19T11:45:53;101200.47;;;24.10;73.06
30516;BME280;17297;54.022;10.760;2022-08-19T11:48:19;101202.38;;;24.10;72.87
30516;BME280;17297;54.022;10.760;2022-08-19T11:50:51;101212.00;;;24.07;73.30
30516;BME280;17297;54.022;10.760;2022-08-19T11:53:18;101206.78;;;24.06;72.94
30516;BME280;17297;54.022;10.760;2022-08-19T11:55:46;101208.72;;;24.05;73.37
30516;BME280;17297;54.022;10.760;2022-08-19T11:58:13;101206.78;;;24.06;73.20
30516;BME280;17297;54.022;10.760;2022-08-19T12:00:40;101203.47;;;24.04;73.41
30516;BME280;17297;54.022;10.760;2022-08-19T12:03:07;101195.53;;;24.02;73.40
30516;BME280;17297;54.022;10.760;2022-08-19T12:05:32;101195.53;;;24.02;73.14
30516;BME280;17297;54.022;10.760;2022-08-19T12:07:58;101197.16;;;24.03;73.14
30516;BME280;17297;54.022;10.760;2022-08-19T12:10:24;101201.84;;;24.03;73.50
30516;BME280;17297;54.022;10.760;2022-08-19T12:12:50;101185.34;;;24.03;73.30
30516;BME280;17297;54.022;10.760;2022-08-19T12:15:15;101205.41;;;24.03;73.05
30516;BME280;17297;54.022;10.760;2022-08-19T12:17:43;101197.16;;;24.03;73.63
30516;BME280;17297;54.022;10.760;2022-08-19T12:20:10;101199.91;;;24.03;73.28
30516;BME280;17297;54.022;10.760;2022-08-19T12:22:37;101188.09;;;24.03;73.17
30516;BME280;17297;54.022;10.760;2022-08-19T12:25:04;101199.91;;;24.03;73.33
30516;BME280;17297;54.022;10.760;2022-08-19T12:27:30;101197.72;;;24.05;73.52
30516;BME280;17297;54.022;10.760;2022-08-19T12:29:56;101200.47;;;24.05;73.35
30516;BME280;17297;54.022;10.760;2022-08-19T12:32:22;101203.22;;;24.05;73.56
30516;BME280;17297;54.022;10.760;2022-08-19T12:34:52;101189.47;;;24.05;73.15
30516;BME280;17297;54.022;10.760;2022-08-19T12:37:20;101196.63;;;24.06;73.38
30516;BME280;17297;54.022;10.760;2022-08-19T12:39:47;101202.94;;;24.07;73.30
30516;BME280;17297;54.022;10.760;2022-08-19T12:42:16;101191.13;;;24.06;73.34
30516;BME280;17297;54.022;10.760;2022-08-19T12:44:43;101205.44;;;24.08;73.28
30516;BME280;17297;54.022;10.760;2022-08-19T12:47:11;101194.44;;;24.08;73.57
30516;BME280;17297;54.022;10.760;2022-08-19T12:49:37;101193.31;;;24.09;73.63
30516;BME280;17297;54.022;10.760;2022-08-19T12:52:04;101190.84;;;24.13;73.23
30516;BME280;17297;54.022;10.760;2022-08-19T12:54:30;101194.16;;;24.15;73.47
30516;BME280;17297;54.022;10.760;2022-08-19T12:56:59;101194.16;;;24.15;73.67
30516;BME280;17297;54.022;10.760;2022-08-19T12:59:25;101195.25;;;24.19;73.48